sensor_id;sensor_type;location;lat;lon;timestamp;temperature;humidity
25616;DHT22;13482;48.234;13.006;2024-01-25T00:01:25;11.40;70.10
25616;DHT22;13482;48.234;13.006;2024-01-25T00:04:00;11.40;70.00
25616;DHT22;13482;48.234;13.006;2024-01-25T00:06:28;11.30;70.00
25616;DHT22;13482;48.234;13.006;2024-01-25T00:08:56;11.40;70.10
25616;DHT22;13482;48.234;13.006;2024-01-25T00:11:24;11.40;70.10
25616;DHT22;13482;48.234;13.006;2024-01-25T00:13:51;11.40;70.10
25616;DHT22;13482;48.234;13.006;2024-01-25T00:16:19;11.40;70.10
25616;DHT22;13482;48.234;13.006;2024-01-25T00:18:46;11.40;70.00
25616;DHT22;13482;48.234;13.006;2024-01-25T00:21:14;11.40;69.90
25616;DHT22;13482;48.234;13.006;2024-01-25T00:23:42;11.40;69.90
25616;DHT22;13482;48.234;13.006;2024-01-25T00:26:10;11.40;69.90
25616;DHT22;13482;48.234;13.006;2024-01-25T00:28:45;11.40;69.90
25616;DHT22;13482;48.234;13.006;2024-01-25T00:31:13;11.40;69.80
25616;DHT22;13482;48.234;13.006;2024-01-25T00:33:41;11.40;69.80
25616;DHT22;13482;48.234;13.006;2024-01-25T00:36:09;11.30;69.80
25616;DHT22;13482;48.234;13.006;2024-01-25T00:38:38;11.30;69.80
25616;DHT22;13482;48.234;13.006;2024-01-25T00:41:09;11.30;69.90
25616;DHT22;13482;48.234;13.006;2024-01-25T00:43:37;11.40;69.80
25616;DHT22;13482;48.234;13.006;2024-01-25T00:46:08;11.30;69.80
25616;DHT22;13482;48.234;13.006;2024-01-25T00:48:37;11.40;69.80
25616;DHT22;13482;48.234;13.006;2024-01-25T00:51:08;11.30;69.70
25616;DHT22;13482;48.234;13.006;2024-01-25T00:53:43;11.30;69.70
25616;DHT22;13482;48.234;13.006;2024-01-25T00:56:11;11.30;69.80
25616;DHT22;13482;48.234;13.006;2024-01-25T00:58:39;11.30;69.80
25616;DHT22;13482;48.234;13.006;2024-01-25T01:01:09;11.30;69.70
25616;DHT22;13482;48.234;13.006;2024-01-25T01:03:37;11.30;69.70
25616;DHT22;13482;48.234;13.006;2024-01-25T01:06:06;11.30;69.70
25616;DHT22;13482;48.234;13.006;2024-01-25T01:08:34;11.30;69.70
25616;DHT22;13482;48.234;13.006;2024-01-25T01:11:03;11.30;69.70
25616;DHT22;13482;48.234;13.006;2024-01-25T01:13:31;11.30;69.70
25616;DHT22;13482;48.234;13.006;2024-01-25T01:16:00;11.30;69.70
25616;DHT22;13482;48.234;13.006;2024-01-25T01:18:28;11.30;69.70
25616;DHT22;13482;48.234;13.006;2024-01-25T01:20:56;11.30;69.70
25616;DHT22;13482;48.234;13.006;2024-01-25T01:23:23;11.30;69.70
25616;DHT22;13482;48.234;13.006;2024-01-25T01:25:51;11.30;69.70
25616;DHT22;13482;48.234;13.006;2024-01-25T01:28:18;11.30;69.70
25616;DHT22;13482;48.234;13.006;2024-01-25T01:30:46;11.30;69.70
25616;DHT22;13482;48.234;13.006;2024-01-25T01:33:14;11.30;69.70
25616;DHT22;13482;48.234;13.006;2024-01-25T01:35:41;11.30;69.70
25616;DHT22;13482;48.234;13.006;2024-01-25T01:38:09;11.30;69.70
25616;DHT22;13482;48.234;13.006;2024-01-25T01:40:37;11.30;69.70
25616;DHT22;13482;48.234;13.006;2024-01-25T01:43:05;11.30;69.70
25616;DHT22;13482;48.234;13.006;2024-01-25T01:45:32;11.30;69.60
25616;DHT22;13482;48.234;13.006;2024-01-25T01:48:00;11.30;69.60
25616;DHT22;13482;48.234;13.006;2024-01-25T01:50:28;11.30;69.60
25616;DHT22;13482;48.234;13.006;2024-01-25T01:52:56;11.30;69.60
25616;DHT22;13482;48.234;13.006;2024-01-25T01:55:24;11.30;69.60
25616;DHT22;13482;48.234;13.006;2024-01-25T01:57:52;11.30;69.50
25616;DHT22;13482;48.234;13.006;2024-01-25T02:00:20;11.30;69.50
25616;DHT22;13482;48.234;13.006;2024-01-25T02:02:48;11.30;69.50
25616;DHT22;13482;48.234;13.006;2024-01-25T02:05:16;11.30;69.50
25616;DHT22;13482;48.234;13.006;2024-01-25T02:07:43;11.30;69.50
25616;DHT22;13482;48.234;13.006;2024-01-25T02:10:12;11.30;69.50
25616;DHT22;13482;48.234;13.006;2024-01-25T02:12:40;11.30;69.50
25616;DHT22;13482;48.234;13.006;2024-01-25T02:15:08;11.30;69.60
25616;DHT22;13482;48.234;13.006;2024-01-25T02:17:36;11.20;69.70
25616;DHT22;13482;48.234;13.006;2024-01-25T02:20:05;11.20;69.70
25616;DHT22;13482;48.234;13.006;2024-01-25T02:22:33;11.20;69.70
25616;DHT22;13482;48.234;13.006;2024-01-25T02:25:01;11.20;69.70
25616;DHT22;13482;48.234;13.006;2024-01-25T02:27:29;11.20;69.80
25616;DHT22;13482;48.234;13.006;2024-01-25T02:29:56;11.30;69.80
25616;DHT22;13482;48.234;13.006;2024-01-25T02:32:24;11.30;69.80
25616;DHT22;13482;48.234;13.006;2024-01-25T02:34:51;11.30;69.80
25616;DHT22;13482;48.234;13.006;2024-01-25T02:37:19;11.30;69.80
25616;DHT22;13482;48.234;13.006;2024-01-25T02:39:47;11.30;69.70
25616;DHT22;13482;48.234;13.006;2024-01-25T02:42:19;11.30;69.70
25616;DHT22;13482;48.234;13.006;2024-01-25T02:44:46;11.30;69.70
25616;DHT22;13482;48.234;13.006;2024-01-25T02:47:14;11.30;69.80
25616;DHT22;13482;48.234;13.006;2024-01-25T02:49:42;11.30;69.80
25616;DHT22;13482;48.234;13.006;2024-01-25T02:52:10;11.30;69.80
25616;DHT22;13482;48.234;13.006;2024-01-25T02:54:38;11.30;69.80
25616;DHT22;13482;48.234;13.006;2024-01-25T02:57:05;11.30;69.90
25616;DHT22;13482;48.234;13.006;2024-01-25T02:59:33;11.30;69.90
25616;DHT22;13482;48.234;13.006;2024-01-25T03:02:00;11.30;69.90
25616;DHT22;13482;48.234;13.006;2024-01-25T03:04:28;11.30;69.90
25616;DHT22;13482;48.234;13.006;2024-01-25T03:06:56;11.30;69.90
25616;DHT22;13482;48.234;13.006;2024-01-25T03:09:24;11.30;69.90
25616;DHT22;13482;48.234;13.006;2024-01-25T03:11:51;11.30;69.90
25616;DHT22;13482;48.234;13.006;2024-01-25T03:14:19;11.30;69.80
25616;DHT22;13482;48.234;13.006;2024-01-25T03:16:46;11.30;69.80
25616;DHT22;13482;48.234;13.006;2024-01-25T03:19:13;11.40;69.70
25616;DHT22;13482;48.234;13.006;2024-01-25T03:21:41;11.30;69.70
25616;DHT22;13482;48.234;13.006;2024-01-25T03:24:09;11.30;69.60
25616;DHT22;13482;48.234;13.006;2024-01-25T03:26:37;11.30;69.60
25616;DHT22;13482;48.234;13.006;2024-01-25T03:29:04;11.30;69.60
25616;DHT22;13482;48.234;13.006;2024-01-25T03:31:32;11.30;69.70
25616;DHT22;13482;48.234;13.006;2024-01-25T03:34:00;11.30;69.80
25616;DHT22;13482;48.234;13.006;2024-01-25T03:36:28;11.30;69.90
25616;DHT22;13482;48.234;13.006;2024-01-25T03:38:56;11.20;70.00
25616;DHT22;13482;48.234;13.006;2024-01-25T03:41:24;11.20;70.00
25616;DHT22;13482;48.234;13.006;2024-01-25T03:43:51;11.20;70.10
25616;DHT22;13482;48.234;13.006;2024-01-25T03:46:19;11.30;70.10
25616;DHT22;13482;48.234;13.006;2024-01-25T03:48:47;11.30;70.10
25616;DHT22;13482;48.234;13.006;2024-01-25T03:51:14;11.30;70.20
25616;DHT22;13482;48.234;13.006;2024-01-25T03:53:43;11.30;70.20
25616;DHT22;13482;48.234;13.006;2024-01-25T03:56:11;11.30;70.20
25616;DHT22;13482;48.234;13.006;2024-01-25T03:58:45;11.30;70.20
25616;DHT22;13482;48.234;13.006;2024-01-25T04:01:13;11.30;70.20
25616;DHT22;13482;48.234;13.006;2024-01-25T04:03:41;11.30;70.20
25616;DHT22;13482;48.234;13.006;2024-01-25T04:06:09;11.30;70.20
25616;DHT22;13482;48.234;13.006;2024-01-25T04:08:37;11.30;70.20
25616;DHT22;13482;48.234;13.006;2024-01-25T04:11:05;11.30;70.20
25616;DHT22;13482;48.234;13.006;2024-01-25T04:13:32;11.30;70.20
25616;DHT22;13482;48.234;13.006;2024-01-25T04:16:00;11.30;70.10
25616;DHT22;13482;48.234;13.006;2024-01-25T04:18:28;11.30;70.10
25616;DHT22;13482;48.234;13.006;2024-01-25T04:20:55;11.30;70.00
25616;DHT22;13482;48.234;13.006;2024-01-25T04:23:23;11.30;70.10
25616;DHT22;13482;48.234;13.006;2024-01-25T04:25:50;11.30;70.10
25616;DHT22;13482;48.234;13.006;2024-01-25T04:28:18;11.30;70.10
25616;DHT22;13482;48.234;13.006;2024-01-25T04:30:46;11.30;70.10
25616;DHT22;13482;48.234;13.006;2024-01-25T04:33:14;11.30;70.10
25616;DHT22;13482;48.234;13.006;2024-01-25T04:35:43;11.30;70.10
25616;DHT22;13482;48.234;13.006;2024-01-25T04:38:11;11.30;70.20
25616;DHT22;13482;48.234;13.006;2024-01-25T04:40:39;11.20;70.20
25616;DHT22;13482;48.234;13.006;2024-01-25T04:43:06;11.20;70.20
25616;DHT22;13482;48.234;13.006;2024-01-25T04:45:34;11.20;70.10
25616;DHT22;13482;48.234;13.006;2024-01-25T04:48:01;11.20;70.00
25616;DHT22;13482;48.234;13.006;2024-01-25T04:50:30;11.20;70.00
25616;DHT22;13482;48.234;13.006;2024-01-25T04:52:57;11.10;70.00
25616;DHT22;13482;48.234;13.006;2024-01-25T04:55:27;11.10;70.10
25616;DHT22;13482;48.234;13.006;2024-01-25T04:57:54;11.10;70.10
25616;DHT22;13482;48.234;13.006;2024-01-25T05:00:23;11.10;70.20
25616;DHT22;13482;48.234;13.006;2024-01-25T05:02:50;11.00;70.20
25616;DHT22;13482;48.234;13.006;2024-01-25T05:05:18;11.00;70.30
25616;DHT22;13482;48.234;13.006;2024-01-25T05:07:45;11.00;70.40
25616;DHT22;13482;48.234;13.006;2024-01-25T05:10:14;11.00;70.40
25616;DHT22;13482;48.234;13.006;2024-01-25T05:12:41;11.00;70.50
25616;DHT22;13482;48.234;13.006;2024-01-25T05:15:09;11.00;70.60
25616;DHT22;13482;48.234;13.006;2024-01-25T05:17:37;11.00;70.70
25616;DHT22;13482;48.234;13.006;2024-01-25T05:20:05;11.00;70.90
25616;DHT22;13482;48.234;13.006;2024-01-25T05:22:33;11.00;70.90
25616;DHT22;13482;48.234;13.006;2024-01-25T05:25:07;11.00;70.90
25616;DHT22;13482;48.234;13.006;2024-01-25T05:27:35;11.00;70.90
25616;DHT22;13482;48.234;13.006;2024-01-25T05:30:03;11.00;70.90
25616;DHT22;13482;48.234;13.006;2024-01-25T05:32:32;11.00;70.90
25616;DHT22;13482;48.234;13.006;2024-01-25T05:34:59;11.00;70.90
25616;DHT22;13482;48.234;13.006;2024-01-25T05:37:27;11.00;70.80
25616;DHT22;13482;48.234;13.006;2024-01-25T05:39:55;11.00;70.80
25616;DHT22;13482;48.234;13.006;2024-01-25T05:42:22;11.00;70.80
25616;DHT22;13482;48.234;13.006;2024-01-25T05:44:50;11.10;70.80
25616;DHT22;13482;48.234;13.006;2024-01-25T05:47:18;11.10;70.80
25616;DHT22;13482;48.234;13.006;2024-01-25T05:49:46;11.10;70.80
25616;DHT22;13482;48.234;13.006;2024-01-25T05:52:14;11.10;70.80
25616;DHT22;13482;48.234;13.006;2024-01-25T05:54:41;11.10;70.80
25616;DHT22;13482;48.234;13.006;2024-01-25T05:57:10;11.10;70.80
25616;DHT22;13482;48.234;13.006;2024-01-25T05:59:37;11.10;70.80
25616;DHT22;13482;48.234;13.006;2024-01-25T06:02:05;11.00;70.70
25616;DHT22;13482;48.234;13.006;2024-01-25T06:04:33;11.00;70.70
25616;DHT22;13482;48.234;13.006;2024-01-25T06:07:01;11.00;70.70
25616;DHT22;13482;48.234;13.006;2024-01-25T06:09:30;11.00;70.70
25616;DHT22;13482;48.234;13.006;2024-01-25T06:12:00;11.00;70.70
25616;DHT22;13482;48.234;13.006;2024-01-25T06:14:28;11.00;70.70
25616;DHT22;13482;48.234;13.006;2024-01-25T06:16:55;10.90;70.70
25616;DHT22;13482;48.234;13.006;2024-01-25T06:19:23;10.90;70.70
25616;DHT22;13482;48.234;13.006;2024-01-25T06:22:00;10.90;70.70
25616;DHT22;13482;48.234;13.006;2024-01-25T06:24:28;10.90;70.70
25616;DHT22;13482;48.234;13.006;2024-01-25T06:26:56;10.90;70.70
25616;DHT22;13482;48.234;13.006;2024-01-25T06:29:24;10.90;70.70
25616;DHT22;13482;48.234;13.006;2024-01-25T06:31:51;10.90;70.70
25616;DHT22;13482;48.234;13.006;2024-01-25T06:34:19;10.80;70.70
25616;DHT22;13482;48.234;13.006;2024-01-25T06:36:47;10.80;70.70
25616;DHT22;13482;48.234;13.006;2024-01-25T06:39:14;10.80;70.70
25616;DHT22;13482;48.234;13.006;2024-01-25T06:41:42;10.80;70.70
25616;DHT22;13482;48.234;13.006;2024-01-25T06:44:09;10.80;70.70
25616;DHT22;13482;48.234;13.006;2024-01-25T06:46:39;10.80;70.70
25616;DHT22;13482;48.234;13.006;2024-01-25T06:49:08;10.80;70.70
25616;DHT22;13482;48.234;13.006;2024-01-25T06:51:36;10.80;70.70
25616;DHT22;13482;48.234;13.006;2024-01-25T06:54:04;10.70;70.60
25616;DHT22;13482;48.234;13.006;2024-01-25T06:56:31;10.70;70.60
25616;DHT22;13482;48.234;13.006;2024-01-25T06:59:00;10.70;70.60
25616;DHT22;13482;48.234;13.006;2024-01-25T07:01:28;10.70;70.50
25616;DHT22;13482;48.234;13.006;2024-01-25T07:04:00;10.60;70.50
25616;DHT22;13482;48.234;13.006;2024-01-25T07:07:00;10.60;70.60
25616;DHT22;13482;48.234;13.006;2024-01-25T07:09:27;10.60;70.50
25616;DHT22;13482;48.234;13.006;2024-01-25T07:11:55;10.50;70.50
25616;DHT22;13482;48.234;13.006;2024-01-25T07:14:22;10.50;70.60
25616;DHT22;13482;48.234;13.006;2024-01-25T07:16:50;10.50;70.60
25616;DHT22;13482;48.234;13.006;2024-01-25T07:19:18;10.50;70.60
25616;DHT22;13482;48.234;13.006;2024-01-25T07:21:45;10.40;70.70
25616;DHT22;13482;48.234;13.006;2024-01-25T07:24:13;10.40;70.70
25616;DHT22;13482;48.234;13.006;2024-01-25T07:26:40;10.40;70.60
25616;DHT22;13482;48.234;13.006;2024-01-25T07:29:08;10.40;70.60
25616;DHT22;13482;48.234;13.006;2024-01-25T07:31:35;10.40;70.60
25616;DHT22;13482;48.234;13.006;2024-01-25T07:34:03;10.40;70.60
25616;DHT22;13482;48.234;13.006;2024-01-25T07:36:31;10.40;70.60
25616;DHT22;13482;48.234;13.006;2024-01-25T07:38:58;10.40;70.60
25616;DHT22;13482;48.234;13.006;2024-01-25T07:41:27;10.40;70.60
25616;DHT22;13482;48.234;13.006;2024-01-25T07:43:54;10.40;70.60
25616;DHT22;13482;48.234;13.006;2024-01-25T07:46:22;10.40;70.60
25616;DHT22;13482;48.234;13.006;2024-01-25T07:48:51;10.40;70.60
25616;DHT22;13482;48.234;13.006;2024-01-25T07:51:19;10.40;70.60
25616;DHT22;13482;48.234;13.006;2024-01-25T07:53:47;10.40;70.60
25616;DHT22;13482;48.234;13.006;2024-01-25T07:56:15;10.40;70.60
25616;DHT22;13482;48.234;13.006;2024-01-25T07:58:42;10.40;70.70
25616;DHT22;13482;48.234;13.006;2024-01-25T08:01:10;10.40;70.70
25616;DHT22;13482;48.234;13.006;2024-01-25T08:03:38;10.40;70.80
25616;DHT22;13482;48.234;13.006;2024-01-25T08:06:06;10.40;70.90
25616;DHT22;13482;48.234;13.006;2024-01-25T08:08:33;10.40;70.90
25616;DHT22;13482;48.234;13.006;2024-01-25T08:11:01;10.40;70.90
25616;DHT22;13482;48.234;13.006;2024-01-25T08:13:29;10.40;70.90
25616;DHT22;13482;48.234;13.006;2024-01-25T08:16:01;10.40;70.90
25616;DHT22;13482;48.234;13.006;2024-01-25T08:18:28;10.40;70.90
25616;DHT22;13482;48.234;13.006;2024-01-25T08:20:58;10.50;70.90
25616;DHT22;13482;48.234;13.006;2024-01-25T08:23:26;10.50;70.90
25616;DHT22;13482;48.234;13.006;2024-01-25T08:25:53;10.50;70.80
25616;DHT22;13482;48.234;13.006;2024-01-25T08:28:21;10.50;70.70
25616;DHT22;13482;48.234;13.006;2024-01-25T08:30:49;10.50;70.60
25616;DHT22;13482;48.234;13.006;2024-01-25T08:33:16;10.50;70.60
25616;DHT22;13482;48.234;13.006;2024-01-25T08:35:44;10.50;70.60
25616;DHT22;13482;48.234;13.006;2024-01-25T08:38:12;10.50;70.60
25616;DHT22;13482;48.234;13.006;2024-01-25T08:40:40;10.50;70.50
25616;DHT22;13482;48.234;13.006;2024-01-25T08:43:08;10.60;70.50
25616;DHT22;13482;48.234;13.006;2024-01-25T08:45:35;10.60;70.50
25616;DHT22;13482;48.234;13.006;2024-01-25T08:48:05;10.60;70.50
25616;DHT22;13482;48.234;13.006;2024-01-25T08:50:35;10.60;70.60
25616;DHT22;13482;48.234;13.006;2024-01-25T08:53:03;10.70;70.60
25616;DHT22;13482;48.234;13.006;2024-01-25T08:55:39;10.70;70.80
25616;DHT22;13482;48.234;13.006;2024-01-25T08:58:15;10.80;70.70
25616;DHT22;13482;48.234;13.006;2024-01-25T09:00:47;10.90;70.90
25616;DHT22;13482;48.234;13.006;2024-01-25T09:03:16;10.90;70.60
25616;DHT22;13482;48.234;13.006;2024-01-25T09:05:46;11.00;70.60
25616;DHT22;13482;48.234;13.006;2024-01-25T09:08:52;11.10;70.40
25616;DHT22;13482;48.234;13.006;2024-01-25T09:11:43;11.10;70.40
25616;DHT22;13482;48.234;13.006;2024-01-25T09:14:30;11.30;70.60
25616;DHT22;13482;48.234;13.006;2024-01-25T09:16:59;11.40;70.30
25616;DHT22;13482;48.234;13.006;2024-01-25T09:19:26;11.40;70.10
25616;DHT22;13482;48.234;13.006;2024-01-25T09:21:54;11.50;69.90
25616;DHT22;13482;48.234;13.006;2024-01-25T09:24:24;11.60;69.70
25616;DHT22;13482;48.234;13.006;2024-01-25T09:26:51;11.60;69.60
25616;DHT22;13482;48.234;13.006;2024-01-25T09:29:19;11.60;69.60
25616;DHT22;13482;48.234;13.006;2024-01-25T09:31:46;11.70;69.40
25616;DHT22;13482;48.234;13.006;2024-01-25T09:34:14;11.70;69.50
25616;DHT22;13482;48.234;13.006;2024-01-25T09:36:42;11.70;69.10
25616;DHT22;13482;48.234;13.006;2024-01-25T09:39:10;11.80;69.30
25616;DHT22;13482;48.234;13.006;2024-01-25T09:41:38;11.80;69.10
25616;DHT22;13482;48.234;13.006;2024-01-25T09:44:08;11.80;69.10
25616;DHT22;13482;48.234;13.006;2024-01-25T09:46:36;11.90;68.80
25616;DHT22;13482;48.234;13.006;2024-01-25T09:49:04;11.90;68.70
25616;DHT22;13482;48.234;13.006;2024-01-25T09:51:40;11.90;68.60
25616;DHT22;13482;48.234;13.006;2024-01-25T09:54:09;11.90;68.60
25616;DHT22;13482;48.234;13.006;2024-01-25T09:56:39;11.90;68.60
25616;DHT22;13482;48.234;13.006;2024-01-25T09:59:09;11.90;68.30
25616;DHT22;13482;48.234;13.006;2024-01-25T10:01:36;11.90;68.10
25616;DHT22;13482;48.234;13.006;2024-01-25T10:04:08;12.00;68.20
25616;DHT22;13482;48.234;13.006;2024-01-25T10:06:36;12.00;68.00
25616;DHT22;13482;48.234;13.006;2024-01-25T10:09:05;12.00;67.60
25616;DHT22;13482;48.234;13.006;2024-01-25T10:11:35;12.00;67.50
25616;DHT22;13482;48.234;13.006;2024-01-25T10:14:11;12.00;67.40
25616;DHT22;13482;48.234;13.006;2024-01-25T10:16:38;12.00;67.40
25616;DHT22;13482;48.234;13.006;2024-01-25T10:19:07;12.00;67.50
25616;DHT22;13482;48.234;13.006;2024-01-25T10:21:36;12.00;67.40
25616;DHT22;13482;48.234;13.006;2024-01-25T10:24:09;12.00;67.30
25616;DHT22;13482;48.234;13.006;2024-01-25T10:26:40;12.00;67.50
25616;DHT22;13482;48.234;13.006;2024-01-25T10:29:10;12.10;67.50
25616;DHT22;13482;48.234;13.006;2024-01-25T10:31:41;12.10;67.20
25616;DHT22;13482;48.234;13.006;2024-01-25T10:34:13;12.10;66.90
25616;DHT22;13482;48.234;13.006;2024-01-25T10:36:43;12.10;66.70
25616;DHT22;13482;48.234;13.006;2024-01-25T10:39:13;12.10;66.10
25616;DHT22;13482;48.234;13.006;2024-01-25T10:41:42;12.10;66.50
25616;DHT22;13482;48.234;13.006;2024-01-25T10:44:12;12.10;66.50
25616;DHT22;13482;48.234;13.006;2024-01-25T10:46:41;12.10;66.10
25616;DHT22;13482;48.234;13.006;2024-01-25T10:49:09;12.10;66.20
25616;DHT22;13482;48.234;13.006;2024-01-25T10:51:38;12.10;65.70
25616;DHT22;13482;48.234;13.006;2024-01-25T10:54:08;12.10;65.90
25616;DHT22;13482;48.234;13.006;2024-01-25T10:56:36;12.10;65.80
25616;DHT22;13482;48.234;13.006;2024-01-25T10:59:04;12.10;65.80
25616;DHT22;13482;48.234;13.006;2024-01-25T11:01:34;12.10;65.60
25616;DHT22;13482;48.234;13.006;2024-01-25T11:04:03;12.10;65.80
25616;DHT22;13482;48.234;13.006;2024-01-25T11:06:39;12.10;65.90
25616;DHT22;13482;48.234;13.006;2024-01-25T11:09:07;12.10;66.00
25616;DHT22;13482;48.234;13.006;2024-01-25T11:11:37;12.20;66.00
25616;DHT22;13482;48.234;13.006;2024-01-25T11:14:13;12.20;65.60
25616;DHT22;13482;48.234;13.006;2024-01-25T11:16:43;12.20;65.40
25616;DHT22;13482;48.234;13.006;2024-01-25T11:19:19;12.20;65.30
25616;DHT22;13482;48.234;13.006;2024-01-25T11:21:50;12.20;65.10
25616;DHT22;13482;48.234;13.006;2024-01-25T11:24:23;12.20;64.90
25616;DHT22;13482;48.234;13.006;2024-01-25T11:26:54;12.20;65.30
25616;DHT22;13482;48.234;13.006;2024-01-25T11:29:24;12.20;65.60
25616;DHT22;13482;48.234;13.006;2024-01-25T11:31:54;12.30;65.40
25616;DHT22;13482;48.234;13.006;2024-01-25T11:34:22;12.30;65.50
25616;DHT22;13482;48.234;13.006;2024-01-25T11:36:51;12.30;65.40
25616;DHT22;13482;48.234;13.006;2024-01-25T11:39:18;12.30;65.10
25616;DHT22;13482;48.234;13.006;2024-01-25T11:41:46;12.30;65.10
25616;DHT22;13482;48.234;13.006;2024-01-25T11:44:15;12.30;65.10
25616;DHT22;13482;48.234;13.006;2024-01-25T11:46:42;12.30;65.10
25616;DHT22;13482;48.234;13.006;2024-01-25T11:49:10;12.30;64.90
25616;DHT22;13482;48.234;13.006;2024-01-25T11:51:38;12.30;65.10
25616;DHT22;13482;48.234;13.006;2024-01-25T11:54:06;12.30;64.90
25616;DHT22;13482;48.234;13.006;2024-01-25T11:56:37;12.20;64.80
25616;DHT22;13482;48.234;13.006;2024-01-25T11:59:09;12.20;65.10
25616;DHT22;13482;48.234;13.006;2024-01-25T12:01:37;12.20;65.30
25616;DHT22;13482;48.234;13.006;2024-01-25T12:04:07;12.30;65.40
25616;DHT22;13482;48.234;13.006;2024-01-25T12:06:35;12.30;65.30
25616;DHT22;13482;48.234;13.006;2024-01-25T12:11:36;12.40;64.80
25616;DHT22;13482;48.234;13.006;2024-01-25T12:14:05;12.40;64.70
25616;DHT22;13482;48.234;13.006;2024-01-25T12:16:35;12.40;64.70
25616;DHT22;13482;48.234;13.006;2024-01-25T12:19:05;12.40;64.70
25616;DHT22;13482;48.234;13.006;2024-01-25T12:21:34;12.40;64.70
25616;DHT22;13482;48.234;13.006;2024-01-25T12:24:03;12.40;64.90
25616;DHT22;13482;48.234;13.006;2024-01-25T12:26:36;12.50;64.70
25616;DHT22;13482;48.234;13.006;2024-01-25T12:29:04;12.50;64.70
25616;DHT22;13482;48.234;13.006;2024-01-25T12:31:32;12.50;64.60
25616;DHT22;13482;48.234;13.006;2024-01-25T12:34:01;12.50;64.60
25616;DHT22;13482;48.234;13.006;2024-01-25T12:36:29;12.50;64.70
25616;DHT22;13482;48.234;13.006;2024-01-25T12:38:56;12.60;64.60
25616;DHT22;13482;48.234;13.006;2024-01-25T12:41:28;12.50;64.60
25616;DHT22;13482;48.234;13.006;2024-01-25T12:43:56;12.60;64.10
25616;DHT22;13482;48.234;13.006;2024-01-25T12:46:25;12.50;64.50
25616;DHT22;13482;48.234;13.006;2024-01-25T12:48:54;12.50;63.70
25616;DHT22;13482;48.234;13.006;2024-01-25T12:51:25;12.50;64.00
25616;DHT22;13482;48.234;13.006;2024-01-25T12:53:53;12.50;64.10
25616;DHT22;13482;48.234;13.006;2024-01-25T12:56:21;12.50;64.20
25616;DHT22;13482;48.234;13.006;2024-01-25T12:58:49;12.50;64.30
25616;DHT22;13482;48.234;13.006;2024-01-25T13:01:17;12.50;64.30
25616;DHT22;13482;48.234;13.006;2024-01-25T13:03:49;12.50;64.40
25616;DHT22;13482;48.234;13.006;2024-01-25T13:06:28;12.50;64.40
25616;DHT22;13482;48.234;13.006;2024-01-25T13:09:02;12.50;63.50
25616;DHT22;13482;48.234;13.006;2024-01-25T13:11:31;12.60;64.50
25616;DHT22;13482;48.234;13.006;2024-01-25T13:13:58;12.60;64.70
25616;DHT22;13482;48.234;13.006;2024-01-25T13:16:26;12.60;64.70
25616;DHT22;13482;48.234;13.006;2024-01-25T13:18:55;12.60;64.70
25616;DHT22;13482;48.234;13.006;2024-01-25T13:21:22;12.70;64.80
25616;DHT22;13482;48.234;13.006;2024-01-25T13:23:50;12.70;64.40
25616;DHT22;13482;48.234;13.006;2024-01-25T13:26:17;12.70;64.30
25616;DHT22;13482;48.234;13.006;2024-01-25T13:28:45;12.70;64.40
25616;DHT22;13482;48.234;13.006;2024-01-25T13:31:12;12.80;64.30
25616;DHT22;13482;48.234;13.006;2024-01-25T13:33:40;12.80;64.20
25616;DHT22;13482;48.234;13.006;2024-01-25T13:36:12;12.80;64.20
25616;DHT22;13482;48.234;13.006;2024-01-25T13:38:41;12.80;64.40
25616;DHT22;13482;48.234;13.006;2024-01-25T13:41:08;12.90;64.60
25616;DHT22;13482;48.234;13.006;2024-01-25T13:43:38;12.90;64.40
25616;DHT22;13482;48.234;13.006;2024-01-25T13:46:07;12.90;64.20
25616;DHT22;13482;48.234;13.006;2024-01-25T13:48:35;13.00;64.10
25616;DHT22;13482;48.234;13.006;2024-01-25T13:51:03;13.00;64.10
25616;DHT22;13482;48.234;13.006;2024-01-25T13:53:31;13.00;64.40
25616;DHT22;13482;48.234;13.006;2024-01-25T13:55:59;13.00;64.20
25616;DHT22;13482;48.234;13.006;2024-01-25T13:58:54;13.10;64.00
25616;DHT22;13482;48.234;13.006;2024-01-25T14:01:44;13.10;63.20
25616;DHT22;13482;48.234;13.006;2024-01-25T14:04:11;13.10;64.00
25616;DHT22;13482;48.234;13.006;2024-01-25T14:06:40;13.10;63.60
25616;DHT22;13482;48.234;13.006;2024-01-25T14:09:08;13.10;63.70
25616;DHT22;13482;48.234;13.006;2024-01-25T14:11:36;13.10;63.70
25616;DHT22;13482;48.234;13.006;2024-01-25T14:14:03;13.10;63.80
25616;DHT22;13482;48.234;13.006;2024-01-25T14:16:31;13.20;63.80
25616;DHT22;13482;48.234;13.006;2024-01-25T14:18:59;13.20;63.70
25616;DHT22;13482;48.234;13.006;2024-01-25T14:21:33;13.20;63.60
25616;DHT22;13482;48.234;13.006;2024-01-25T14:24:01;13.20;63.30
25616;DHT22;13482;48.234;13.006;2024-01-25T14:26:30;13.20;63.30
25616;DHT22;13482;48.234;13.006;2024-01-25T14:28:58;13.20;63.20
25616;DHT22;13482;48.234;13.006;2024-01-25T14:31:25;13.20;63.10
25616;DHT22;13482;48.234;13.006;2024-01-25T14:33:56;13.20;63.00
25616;DHT22;13482;48.234;13.006;2024-01-25T14:36:24;13.10;63.10
25616;DHT22;13482;48.234;13.006;2024-01-25T14:38:52;13.10;62.80
25616;DHT22;13482;48.234;13.006;2024-01-25T14:41:20;13.10;62.70
25616;DHT22;13482;48.234;13.006;2024-01-25T14:43:48;13.00;62.50
25616;DHT22;13482;48.234;13.006;2024-01-25T14:46:16;13.00;62.80
25616;DHT22;13482;48.234;13.006;2024-01-25T14:48:45;12.90;62.90
25616;DHT22;13482;48.234;13.006;2024-01-25T14:51:12;12.90;62.80
25616;DHT22;13482;48.234;13.006;2024-01-25T14:53:41;12.90;62.90
25616;DHT22;13482;48.234;13.006;2024-01-25T14:56:08;12.90;63.00
25616;DHT22;13482;48.234;13.006;2024-01-25T14:58:36;12.80;63.10
25616;DHT22;13482;48.234;13.006;2024-01-25T15:01:03;12.80;63.10
25616;DHT22;13482;48.234;13.006;2024-01-25T15:03:32;12.80;63.10
25616;DHT22;13482;48.234;13.006;2024-01-25T15:06:01;12.80;63.10
25616;DHT22;13482;48.234;13.006;2024-01-25T15:08:28;12.80;63.20
25616;DHT22;13482;48.234;13.006;2024-01-25T15:10:56;12.70;63.20
25616;DHT22;13482;48.234;13.006;2024-01-25T15:13:23;12.70;63.20
25616;DHT22;13482;48.234;13.006;2024-01-25T15:15:52;12.70;63.20
25616;DHT22;13482;48.234;13.006;2024-01-25T15:18:22;12.70;63.30
25616;DHT22;13482;48.234;13.006;2024-01-25T15:20:50;12.70;62.80
25616;DHT22;13482;48.234;13.006;2024-01-25T15:23:20;12.70;63.30
25616;DHT22;13482;48.234;13.006;2024-01-25T15:25:47;12.60;63.20
25616;DHT22;13482;48.234;13.006;2024-01-25T15:28:15;12.60;63.20